Time;durP1;ratioP1;P1;durP2;ratioP2;P2;SDS_P1;SDS_P2;PMS_P1;PMS_P2;Temp;Humidity;BMP_temperature;BMP_pressure;BME280_temperature;BME280_humidity;BME280_pressure;Samples;Min_cycle;Max_cycle;Signal;HPM_P1;HPM_P2
2022/09/24 00:01:23;;;;;;;14.32;12.13;;;14.10;99.90;;;;;;5095287;28;20434;-68
2022/09/24 00:03:54;;;;;;;13.48;11.38;;;14.00;99.90;;;;;;5079353;28;20025;-67
2022/09/24 00:06:21;;;;;;;15.50;12.48;;;14.00;99.90;;;;;;5079468;28;20037;-68
2022/09/24 00:08:49;;;;;;;16.80;12.32;;;14.10;99.90;;;;;;5060685;28;20290;-67
2022/09/24 00:11:18;;;;;;;16.23;12.55;;;14.10;99.90;;;;;;5078929;28;20029;-69
2022/09/24 00:13:44;;;;;;;19.30;12.63;;;14.10;99.90;;;;;;5095299;28;20035;-68
2022/09/24 00:16:13;;;;;;;15.93;13.00;;;14.10;99.90;;;;;;5061696;28;20085;-67
2022/09/24 00:18:39;;;;;;;15.90;12.68;;;14.10;99.90;;;;;;5095098;28;20051;-74
2022/09/24 00:21:13;;;;;;;15.73;12.60;;;14.10;99.90;;;;;;5079073;28;20308;-67
2022/09/24 00:23:39;;;;;;;16.48;13.43;;;14.00;99.90;;;;;;5078353;28;20033;-67
2022/09/24 00:28:51;;;;;;;19.60;14.13;;;13.70;99.90;;;;;;5078093;28;20040;-67
2022/09/24 00:31:17;;;;;;;17.98;14.68;;;13.70;99.90;;;;;;5078370;28;20045;-67
2022/09/24 00:33:43;;;;;;;16.75;13.40;;;13.70;99.90;;;;;;5078039;28;20024;-67
2022/09/24 00:36:13;;;;;;;17.48;14.13;;;13.60;99.90;;;;;;5078138;28;20090;-68
2022/09/24 00:38:39;;;;;;;17.15;12.98;;;13.70;99.90;;;;;;5078015;28;20036;-71
2022/09/24 00:41:05;;;;;;;18.40;14.43;;;13.60;99.90;;;;;;5077921;28;20308;-67
2022/09/24 00:43:34;;;;;;;17.98;13.82;;;13.60;99.90;;;;;;5094713;28;20029;-68
2022/09/24 00:46:12;;;;;;;16.05;13.38;;;13.60;99.90;;;;;;5078487;28;20040;-68
2022/09/24 00:48:39;;;;;;;18.95;14.70;;;13.60;99.90;;;;;;5061124;28;20032;-67
2022/09/24 00:51:06;;;;;;;18.85;14.15;;;13.60;99.90;;;;;;5078440;28;20028;-67
2022/09/24 00:53:32;;;;;;;18.42;14.50;;;13.60;99.90;;;;;;5078261;28;20032;-70
2022/09/24 00:56:02;;;;;;;21.52;15.18;;;13.60;99.90;;;;;;5078007;28;20025;-67
2022/09/24 00:58:32;;;;;;;21.30;16.02;;;13.70;99.90;;;;;;5094485;28;20100;-68
2022/09/24 01:01:03;;;;;;;18.67;14.77;;;13.60;99.90;;;;;;5078334;28;20037;-68
2022/09/24 01:03:31;;;;;;;19.33;14.88;;;13.60;99.90;;;;;;5078242;28;20039;-67
2022/09/24 01:05:57;;;;;;;20.40;14.65;;;13.60;99.90;;;;;;5078179;28;20031;-67
2022/09/24 01:08:23;;;;;;;19.23;14.88;;;13.60;99.90;;;;;;5078085;28;20292;-66
2022/09/24 01:11:12;;;;;;;20.88;15.00;;;13.70;99.90;;;;;;5078253;28;20035;-68
2022/09/24 01:13:54;;;;;;;19.45;14.80;;;13.60;99.90;;;;;;5078248;28;20308;-67
2022/09/24 01:16:44;;;;;;;19.73;15.50;;;13.50;99.90;;;;;;5078252;28;20036;-72
2022/09/24 01:19:41;;;;;;;20.92;15.70;;;13.50;99.90;;;;;;5078482;28;20036;-73
2022/09/24 01:22:14;;;;;;;20.88;16.60;;;13.40;99.90;;;;;;5077369;28;20041;-71
2022/09/24 01:25:17;;;;;;;19.38;15.90;;;13.50;99.90;;;;;;5077852;28;20047;-69
2022/09/24 01:28:08;;;;;;;18.70;14.95;;;13.50;99.90;;;;;;5093999;28;20119;-69
2022/09/24 01:30:37;;;;;;;20.30;15.63;;;13.50;99.90;;;;;;5077674;28;20032;-69
2022/09/24 01:33:12;;;;;;;24.05;16.67;;;13.50;99.90;;;;;;5077067;28;20063;-73
2022/09/24 01:35:43;;;;;;;21.33;15.95;;;13.50;99.90;;;;;;5076860;28;20043;-69
2022/09/24 01:38:16;;;;;;;18.13;15.15;;;13.60;99.90;;;;;;5076941;28;20459;-69
2022/09/24 01:40:44;;;;;;;20.67;15.38;;;13.80;99.90;;;;;;5077560;28;20457;-70
2022/09/24 01:43:12;;;;;;;20.75;15.70;;;13.80;99.90;;;;;;5077541;28;20025;-68
2022/09/24 01:45:39;;;;;;;19.23;15.30;;;13.70;99.90;;;;;;5078016;28;20028;-70
2022/09/24 01:48:05;;;;;;;21.35;16.05;;;13.70;99.90;;;;;;5077180;28;20089;-72
2022/09/24 01:50:50;;;;;;;20.33;15.52;;;13.80;99.90;;;;;;5080985;28;20032;-71
2022/09/24 01:53:20;;;;;;;20.40;15.20;;;13.60;99.90;;;;;;5077984;28;20032;-71
2022/09/24 01:55:52;;;;;;;20.65;16.13;;;13.50;99.90;;;;;;5095336;28;20025;-73
2022/09/24 01:58:26;;;;;;;23.92;17.35;;;13.50;99.90;;;;;;5079177;28;20029;-73
2022/09/24 02:01:02;;;;;;;23.05;16.45;;;13.50;99.90;;;;;;5079960;28;20404;-72
2022/09/24 02:03:45;;;;;;;24.00;16.77;;;13.50;99.90;;;;;;5084300;28;20088;-74
2022/09/24 02:06:15;;;;;;;23.83;16.63;;;13.50;99.90;;;;;;5084126;28;20040;-74
2022/09/24 02:08:46;;;;;;;23.88;17.35;;;13.50;99.90;;;;;;5086926;28;20043;-73
2022/09/24 02:11:21;;;;;;;23.10;16.77;;;13.50;99.90;;;;;;5084408;28;20036;-73
2022/09/24 02:14:16;;;;;;;21.38;17.02;;;13.50;99.90;;;;;;5083987;28;20161;-72
2022/09/24 02:16:46;;;;;;;22.33;17.00;;;13.50;99.90;;;;;;5081587;28;20028;-73
2022/09/24 02:19:20;;;;;;;22.55;16.75;;;13.40;99.90;;;;;;5062031;28;20024;-73
2022/09/24 02:21:47;;;;;;;21.63;16.60;;;13.40;99.90;;;;;;5083153;28;20032;-68
2022/09/24 02:24:28;;;;;;;21.85;16.35;;;13.50;99.90;;;;;;5079824;28;20037;-75
2022/09/24 02:26:54;;;;;;;21.55;15.38;;;13.50;99.90;;;;;;5062997;28;20052;-72
2022/09/24 02:29:20;;;;;;;20.30;16.08;;;13.40;99.90;;;;;;5081727;28;20051;-72
2022/09/24 02:31:53;;;;;;;19.77;15.65;;;13.50;99.90;;;;;;5084462;28;20033;-72
2022/09/24 02:34:28;;;;;;;23.33;16.88;;;13.50;99.90;;;;;;5084649;28;20024;-74
2022/09/24 02:37:02;;;;;;;19.10;15.63;;;13.60;99.90;;;;;;5083181;28;20095;-70
2022/09/24 02:39:27;;;;;;;19.45;15.65;;;13.50;99.90;;;;;;5079252;28;20048;-72
2022/09/24 02:41:54;;;;;;;18.45;14.98;;;13.50;99.90;;;;;;5063632;28;20132;-73
2022/09/24 02:44:21;;;;;;;21.10;15.50;;;13.50;99.90;;;;;;5079897;28;20028;-70
2022/09/24 02:46:49;;;;;;;18.55;14.80;;;13.60;99.90;;;;;;5060132;28;20032;-70
2022/09/24 02:49:15;;;;;;;17.77;15.30;;;13.50;99.90;;;;;;5077210;28;20305;-71
2022/09/24 02:51:41;;;;;;;20.60;15.65;;;13.50;99.90;;;;;;5077412;28;20032;-70
2022/09/24 02:54:08;;;;;;;19.13;15.60;;;13.50;99.90;;;;;;5076121;28;20024;-69
2022/09/24 02:56:34;;;;;;;18.85;14.50;;;13.50;99.90;;;;;;5076596;28;20296;-70
2022/09/24 02:59:03;;;;;;;18.48;15.10;;;13.50;99.90;;;;;;5076413;28;20068;-70
2022/09/24 03:01:30;;;;;;;19.30;15.20;;;13.50;99.90;;;;;;5075857;28;20052;-70
2022/09/24 03:03:57;;;;;;;19.35;15.20;;;13.50;99.90;;;;;;5076769;28;20125;-71
2022/09/24 03:06:26;;;;;;;18.90;14.00;;;13.50;99.90;;;;;;5076843;28;20021;-70
2022/09/24 03:08:55;;;;;;;17.45;14.50;;;13.50;99.90;;;;;;5093570;28;20304;-70
2022/09/24 03:11:21;;;;;;;17.42;13.85;;;13.50;99.90;;;;;;5077136;28;20075;-71
2022/09/24 03:13:47;;;;;;;15.27;13.68;;;13.50;99.90;;;;;;5076083;28;20064;-69
2022/09/24 03:16:14;;;;;;;15.75;13.63;;;13.60;99.90;;;;;;5075784;28;20056;-70
2022/09/24 03:18:40;;;;;;;15.60;12.35;;;13.60;99.90;;;;;;5076487;28;20304;-70
2022/09/24 03:21:09;;;;;;;14.43;12.77;;;13.50;99.90;;;;;;5042404;28;20124;-71
2022/09/24 03:23:35;;;;;;;16.48;12.65;;;13.60;99.90;;;;;;5075796;28;20040;-70
2022/09/24 03:26:02;;;;;;;14.55;11.90;;;13.50;99.90;;;;;;5075605;28;20037;-70
2022/09/24 03:28:28;;;;;;;14.13;12.30;;;13.60;99.90;;;;;;5092437;28;20037;-72
2022/09/24 03:31:00;;;;;;;16.45;12.30;;;13.50;99.90;;;;;;5076216;28;20104;-71
2022/09/24 03:33:25;;;;;;;15.40;12.68;;;13.50;99.90;;;;;;5076356;28;20036;-70
2022/09/24 03:36:00;;;;;;;16.65;12.85;;;13.40;99.90;;;;;;5075495;28;20103;-71
2022/09/24 03:38:26;;;;;;;15.70;12.10;;;13.40;99.90;;;;;;5059165;28;20028;-73
2022/09/24 03:40:52;;;;;;;13.30;11.38;;;13.30;99.90;;;;;;5059034;28;20119;-68
2022/09/24 03:43:18;;;;;;;16.40;12.43;;;13.30;99.90;;;;;;5059065;28;20079;-73
2022/09/24 03:45:44;;;;;;;14.25;12.13;;;13.30;99.90;;;;;;5079745;28;20088;-70
2022/09/24 03:48:10;;;;;;;15.57;11.82;;;13.20;99.90;;;;;;5079717;28;20157;-71
2022/09/24 03:50:37;;;;;;;12.90;11.20;;;13.20;99.90;;;;;;5079887;28;20035;-71
2022/09/24 03:53:03;;;;;;;15.75;12.45;;;13.10;99.90;;;;;;5079521;28;20029;-73
2022/09/24 03:55:29;;;;;;;19.00;13.48;;;13.10;99.90;;;;;;5063456;28;20048;-73
2022/09/24 03:57:55;;;;;;;15.63;13.45;;;13.00;99.90;;;;;;5062324;28;20400;-69
2022/09/24 04:00:22;;;;;;;16.83;14.38;;;13.00;99.90;;;;;;5079656;28;20082;-75
2022/09/24 04:02:48;;;;;;;18.55;14.02;;;13.00;99.90;;;;;;5079585;28;20032;-72
2022/09/24 04:05:14;;;;;;;19.60;14.00;;;13.10;99.90;;;;;;5078789;28;20025;-73
2022/09/24 04:07:42;;;;;;;19.25;14.63;;;13.00;99.90;;;;;;5063259;28;20090;-75
2022/09/24 04:10:09;;;;;;;17.85;14.50;;;13.10;99.90;;;;;;5079980;28;20043;-73
2022/09/24 04:12:35;;;;;;;18.70;14.98;;;13.10;99.90;;;;;;5079177;28;20033;-71
2022/09/24 04:15:04;;;;;;;19.73;15.27;;;13.10;99.90;;;;;;5079125;28;20036;-75
2022/09/24 04:17:33;;;;;;;18.15;14.95;;;13.00;99.90;;;;;;5078521;28;20124;-67
2022/09/24 04:20:00;;;;;;;18.52;15.43;;;13.10;99.90;;;;;;5078861;28;20039;-74
2022/09/24 04:22:27;;;;;;;21.85;16.65;;;13.00;99.90;;;;;;5061960;28;20032;-68
2022/09/24 04:24:56;;;;;;;23.67;16.50;;;13.00;99.90;;;;;;5079094;28;20060;-72
2022/09/24 04:27:22;;;;;;;22.40;17.50;;;13.10;99.90;;;;;;5078372;28;20325;-68
2022/09/24 04:29:48;;;;;;;24.38;16.20;;;13.10;99.90;;;;;;5079180;28;20115;-72
2022/09/24 04:32:14;;;;;;;23.13;16.00;;;13.00;99.90;;;;;;5078352;28;20036;-69
2022/09/24 04:34:40;;;;;;;22.30;16.42;;;13.00;99.90;;;;;;5095039;28;20313;-73
2022/09/24 04:37:06;;;;;;;21.73;16.23;;;13.10;99.90;;;;;;5078745;28;20037;-72
2022/09/24 04:39:31;;;;;;;19.05;15.20;;;13.10;99.90;;;;;;5061833;28;20036;-74
2022/09/24 04:41:58;;;;;;;20.05;15.48;;;13.00;99.90;;;;;;5078631;28;20033;-74
2022/09/24 04:44:24;;;;;;;24.98;16.60;;;13.00;99.90;;;;;;5078454;28;20105;-71
2022/09/24 04:46:49;;;;;;;20.85;16.17;;;12.90;99.90;;;;;;5079888;28;20115;-75
2022/09/24 04:49:15;;;;;;;23.00;16.73;;;12.90;99.90;;;;;;5063427;28;20121;-75
2022/09/24 04:51:41;;;;;;;23.05;16.83;;;12.90;99.90;;;;;;5079247;28;20039;-74
2022/09/24 04:54:08;;;;;;;23.88;17.08;;;13.00;99.90;;;;;;5077799;28;20415;-75
2022/09/24 04:56:34;;;;;;;22.13;16.00;;;13.10;99.90;;;;;;5078043;28;20454;-74
2022/09/24 04:58:59;;;;;;;22.48;15.70;;;13.20;99.90;;;;;;5061631;28;20032;-77
2022/09/24 05:01:25;;;;;;;23.27;16.95;;;13.10;99.90;;;;;;5045763;28;20045;-71
2022/09/24 05:03:52;;;;;;;24.90;15.93;;;13.10;99.90;;;;;;5079718;28;20033;-74
2022/09/24 05:06:18;;;;;;;22.23;16.33;;;13.10;99.90;;;;;;5046189;28;20032;-75
2022/09/24 05:08:44;;;;;;;22.77;16.65;;;13.10;99.90;;;;;;5079430;28;20412;-68
2022/09/24 05:11:10;;;;;;;21.73;15.05;;;13.10;99.90;;;;;;5082603;28;20024;-68
2022/09/24 05:13:36;;;;;;;24.83;16.05;;;13.10;99.90;;;;;;5080239;28;20097;-73
2022/09/24 05:16:02;;;;;;;21.45;15.85;;;13.00;99.90;;;;;;5063609;28;20036;-73
2022/09/24 05:18:28;;;;;;;22.02;15.70;;;13.00;99.90;;;;;;5083371;28;20037;-77
2022/09/24 05:20:53;;;;;;;22.35;16.67;;;13.00;99.90;;;;;;5101224;28;20308;-76
2022/09/24 05:23:19;;;;;;;30.13;16.55;;;13.00;99.90;;;;;;5048484;28;20362;-76
2022/09/24 05:28:32;;;;;;;23.75;16.50;;;13.00;99.90;;;;;;5077906;28;20102;-70
2022/09/24 05:30:58;;;;;;;26.20;17.15;;;13.00;99.90;;;;;;5077792;28;20035;-72
2022/09/24 05:33:25;;;;;;;23.65;17.52;;;13.00;99.90;;;;;;5082717;28;20033;-77
2022/09/24 05:35:56;;;;;;;26.67;18.42;;;13.00;99.90;;;;;;5086324;28;20037;-77
2022/09/24 05:38:22;;;;;;;27.95;19.67;;;13.00;99.90;;;;;;5085890;28;20036;-74
2022/09/24 05:40:48;;;;;;;26.90;19.15;;;13.00;99.90;;;;;;5083668;28;20395;-72
2022/09/24 05:43:15;;;;;;;28.23;18.20;;;13.00;99.90;;;;;;5080736;28;20074;-74
2022/09/24 05:45:43;;;;;;;27.65;18.40;;;13.00;99.90;;;;;;5084541;28;20055;-76
2022/09/24 05:48:10;;;;;;;28.48;19.05;;;13.00;99.90;;;;;;5098799;28;20033;-76
2022/09/24 05:50:35;;;;;;;29.70;19.60;;;13.00;99.90;;;;;;5077653;28;20123;-75
2022/09/24 05:53:02;;;;;;;30.38;20.08;;;13.10;99.90;;;;;;5078432;28;20119;-69
2022/09/24 05:55:28;;;;;;;29.70;19.88;;;13.10;99.90;;;;;;5079043;28;20031;-74
2022/09/24 05:57:54;;;;;;;32.67;20.85;;;13.10;99.90;;;;;;5076710;28;20071;-74
2022/09/24 06:00:20;;;;;;;30.65;20.75;;;13.20;99.90;;;;;;5076322;28;20056;-71
2022/09/24 06:02:46;;;;;;;28.02;20.52;;;13.20;99.90;;;;;;5078465;28;20039;-68
2022/09/24 06:05:12;;;;;;;27.67;20.30;;;13.10;99.90;;;;;;5077815;28;20436;-72
2022/09/24 06:07:38;;;;;;;28.50;20.50;;;13.10;99.90;;;;;;5060439;28;20033;-74
2022/09/24 06:10:06;;;;;;;28.90;20.58;;;13.10;99.90;;;;;;5078473;28;20385;-75
2022/09/24 06:12:35;;;;;;;30.27;20.98;;;13.00;99.90;;;;;;5078320;28;20040;-63
2022/09/24 06:15:02;;;;;;;29.73;21.45;;;13.00;99.90;;;;;;5060504;28;20111;-72
2022/09/24 06:17:28;;;;;;;30.33;20.55;;;13.00;99.90;;;;;;5060618;28;20067;-69
2022/09/24 06:19:54;;;;;;;30.83;21.13;;;13.00;99.90;;;;;;5076336;28;20055;-70
2022/09/24 06:22:20;;;;;;;30.85;20.65;;;13.10;99.90;;;;;;5060267;28;20066;-69
2022/09/24 06:24:46;;;;;;;30.33;21.52;;;13.20;99.90;;;;;;5076342;28;20490;-71
2022/09/24 06:27:12;;;;;;;27.63;20.25;;;13.20;99.90;;;;;;5059725;28;20040;-69
2022/09/24 06:29:37;;;;;;;28.60;21.33;;;13.20;99.90;;;;;;5076133;28;20102;-70
2022/09/24 06:32:03;;;;;;;28.08;20.27;;;13.30;99.90;;;;;;5077178;28;20032;-70
2022/09/24 06:34:29;;;;;;;28.10;21.33;;;13.30;99.90;;;;;;5077517;28;20446;-74
2022/09/24 06:36:58;;;;;;;27.38;19.77;;;13.30;99.90;;;;;;5094520;28;20342;-71
2022/09/24 06:39:25;;;;;;;26.48;19.50;;;13.30;99.90;;;;;;5076141;28;20082;-69
2022/09/24 06:41:51;;;;;;;26.60;19.25;;;13.30;99.90;;;;;;5076126;28;20040;-69
2022/09/24 06:44:18;;;;;;;26.27;19.38;;;13.30;99.90;;;;;;5076472;28;20124;-74
2022/09/24 06:46:44;;;;;;;30.20;21.48;;;13.20;99.90;;;;;;5076126;28;20036;-68
2022/09/24 06:49:11;;;;;;;26.25;20.10;;;13.20;99.90;;;;;;5076385;28;20086;-68
2022/09/24 06:51:37;;;;;;;29.90;20.77;;;13.10;99.90;;;;;;5076046;28;20334;-69
2022/09/24 06:54:03;;;;;;;30.33;21.55;;;13.20;99.90;;;;;;5076130;28;20032;-68
2022/09/24 06:56:29;;;;;;;28.60;20.65;;;13.30;99.90;;;;;;5076995;28;20304;-70
2022/09/24 06:58:55;;;;;;;27.85;21.05;;;13.30;99.90;;;;;;5059328;28;20020;-67
2022/09/24 07:01:21;;;;;;;29.30;21.98;;;13.30;99.90;;;;;;5075864;28;20044;-67
2022/09/24 07:03:47;;;;;;;29.75;22.00;;;13.30;99.90;;;;;;5075953;28;20040;-67
2022/09/24 07:06:13;;;;;;;30.52;21.85;;;13.30;99.90;;;;;;5059312;28;20044;-66
2022/09/24 07:08:39;;;;;;;34.13;23.23;;;13.30;99.90;;;;;;5075711;28;20400;-68
2022/09/24 07:11:05;;;;;;;32.92;23.58;;;13.30;99.90;;;;;;5058883;28;20035;-69
2022/09/24 07:13:31;;;;;;;27.90;21.30;;;13.40;99.90;;;;;;5075662;28;20071;-66
2022/09/24 07:15:56;;;;;;;32.97;21.08;;;13.50;99.90;;;;;;5076333;28;20042;-66
2022/09/24 07:18:22;;;;;;;31.55;22.45;;;13.60;99.90;;;;;;5066534;22;20136;-68
2022/09/24 07:20:53;;;;;;;29.88;21.95;;;13.80;99.90;;;;;;5026174;28;20035;-68
2022/09/24 07:23:20;;;;;;;27.23;20.33;;;13.80;99.90;;;;;;5060081;28;20025;-68
2022/09/24 07:25:47;;;;;;;29.25;21.02;;;13.80;99.90;;;;;;5060143;28;20319;-68
2022/09/24 07:28:16;;;;;;;26.45;20.85;;;13.90;99.90;;;;;;5059986;28;20353;-70
2022/09/24 07:30:42;;;;;;;28.20;21.02;;;13.90;99.90;;;;;;5026697;28;20033;-67
2022/09/24 07:33:08;;;;;;;27.55;20.45;;;13.70;99.90;;;;;;5059166;28;20052;-67
2022/09/24 07:35:37;;;;;;;28.30;20.98;;;13.60;99.90;;;;;;5042416;28;20072;-69
2022/09/24 07:38:10;;;;;;;28.33;19.90;;;13.60;99.90;;;;;;5042534;28;20024;-66
2022/09/24 07:40:36;;;;;;;28.63;20.70;;;13.60;99.90;;;;;;5026019;28;20120;-68
2022/09/24 07:43:02;;;;;;;25.60;20.40;;;13.70;99.90;;;;;;5059788;28;20305;-69
2022/09/24 07:45:30;;;;;;;24.38;19.08;;;13.70;99.90;;;;;;5009624;28;20033;-72
2022/09/24 07:48:01;;;;;;;27.55;20.63;;;13.80;99.90;;;;;;5042313;28;20085;-65
2022/09/24 07:50:29;;;;;;;29.52;19.60;;;14.00;99.90;;;;;;5042307;28;20078;-67
2022/09/24 07:52:55;;;;;;;25.88;19.55;;;13.90;99.90;;;;;;5042216;28;20021;-69
2022/09/24 07:55:22;;;;;;;25.40;19.63;;;14.10;99.90;;;;;;5041839;28;20040;-65
2022/09/24 07:57:50;;;;;;;23.00;18.75;;;14.20;99.90;;;;;;5059813;28;20083;-64
2022/09/24 08:00:17;;;;;;;26.20;18.98;;;14.00;99.90;;;;;;5025434;28;20403;-63
2022/09/24 08:02:44;;;;;;;24.05;18.77;;;14.00;99.90;;;;;;5059432;28;20044;-64
2022/09/24 08:05:11;;;;;;;23.52;18.55;;;13.90;99.90;;;;;;5025452;28;20170;-66
2022/09/24 08:07:36;;;;;;;24.40;18.63;;;13.90;99.90;;;;;;5059635;28;20033;-63
2022/09/24 08:10:03;;;;;;;27.70;19.92;;;13.90;99.90;;;;;;5041739;28;20044;-66
2022/09/24 08:12:29;;;;;;;24.48;18.75;;;14.00;99.90;;;;;;5042520;28;20037;-66
2022/09/24 08:14:54;;;;;;;27.55;19.33;;;14.00;99.90;;;;;;5041798;28;20036;-67
2022/09/24 08:17:20;;;;;;;24.27;19.30;;;14.00;99.90;;;;;;5058974;28;20132;-68
2022/09/24 08:19:46;;;;;;;24.38;19.38;;;14.10;99.90;;;;;;5025194;28;20032;-67
2022/09/24 08:22:15;;;;;;;26.80;19.65;;;14.20;99.90;;;;;;5041747;28;20115;-66
2022/09/24 08:24:42;;;;;;;26.90;19.30;;;14.30;99.90;;;;;;5058951;28;20082;-66
2022/09/24 08:27:08;;;;;;;23.20;18.70;;;14.20;99.90;;;;;;5059006;28;20359;-61
2022/09/24 08:29:34;;;;;;;22.65;18.90;;;14.30;99.90;;;;;;5024161;28;20041;-65
2022/09/24 08:32:00;;;;;;;28.77;19.02;;;14.00;99.90;;;;;;5058897;28;20086;-66
2022/09/24 08:34:26;;;;;;;25.08;18.45;;;14.00;99.90;;;;;;5041660;28;20052;-75
2022/09/24 08:36:57;;;;;;;24.17;19.13;;;13.90;99.90;;;;;;5025825;28;20067;-72
2022/09/24 08:39:23;;;;;;;26.08;19.80;;;13.80;99.90;;;;;;5026007;28;20039;-70
2022/09/24 08:41:54;;;;;;;26.92;20.38;;;14.00;99.90;;;;;;5041473;28;20033;-70
2022/09/24 08:47:35;;;;;;;27.77;21.08;;;14.20;99.90;;;;;;5044317;28;20068;-77
2022/09/24 08:50:10;;;;;;;31.05;21.48;;;14.20;99.90;;;;;;5031843;28;20029;-78
2022/09/24 08:52:41;;;;;;;30.67;21.48;;;14.20;99.90;;;;;;5059784;28;20297;-75
2022/09/24 08:55:21;;;;;;;28.88;21.90;;;14.30;99.90;;;;;;5058902;28;20116;-76
2022/09/24 08:58:05;;;;;;;28.92;21.33;;;14.10;99.90;;;;;;5059143;28;20040;-69
2022/09/24 09:00:39;;;;;;;27.13;20.25;;;13.90;99.90;;;;;;5024844;28;20348;-74
2022/09/24 09:03:34;;;;;;;28.55;21.17;;;13.70;99.90;;;;;;5041560;28;20071;-71
2022/09/24 09:06:22;;;;;;;29.02;21.73;;;13.70;99.90;;;;;;5041367;28;20029;-73
2022/09/24 09:09:10;;;;;;;28.75;21.95;;;13.70;99.90;;;;;;5010724;28;20053;-73
2022/09/24 09:11:38;;;;;;;30.45;21.13;;;13.80;99.90;;;;;;5024480;28;20082;-64
2022/09/24 09:14:39;;;;;;;27.70;20.80;;;13.70;99.90;;;;;;5040725;28;20043;-72
2022/09/24 09:17:10;;;;;;;30.45;20.92;;;13.60;99.90;;;;;;5054301;28;20052;-75
2022/09/24 09:19:38;;;;;;;29.05;21.38;;;13.70;99.90;;;;;;5057332;28;20092;-75
2022/09/24 09:22:12;;;;;;;31.48;22.30;;;13.80;99.90;;;;;;5040976;28;20405;-76
2022/09/24 09:25:17;;;;;;;31.10;21.65;;;13.90;99.90;;;;;;5058241;28;20041;-76
2022/09/24 09:27:43;;;;;;;43.33;27.02;;;13.90;99.90;;;;;;5038920;28;20045;-72
2022/09/24 09:30:14;;;;;;;35.78;22.95;;;14.00;99.90;;;;;;5057842;28;20423;-73
2022/09/24 09:33:07;;;;;;;28.02;21.20;;;14.10;99.90;;;;;;5057825;28;20025;-68
2022/09/24 09:35:52;;;;;;;28.38;19.88;;;13.90;99.90;;;;;;5057652;28;20078;-68
2022/09/24 09:38:37;;;;;;;27.15;20.75;;;13.70;99.90;;;;;;5040236;28;20116;-68
2022/09/24 09:41:29;;;;;;;26.10;19.85;;;13.80;99.90;;;;;;5058104;28;20048;-69
2022/09/24 09:44:08;;;;;;;30.70;21.37;;;13.70;99.90;;;;;;5040392;28;20049;-73
2022/09/24 09:46:39;;;;;;;28.25;21.02;;;13.90;99.90;;;;;;5057683;28;20271;-75
2022/09/24 09:49:06;;;;;;;30.02;20.58;;;13.80;99.90;;;;;;5058098;28;20045;-77
2022/09/24 09:51:40;;;;;;;31.55;22.65;;;14.00;99.90;;;;;;5040330;28;20033;-72
2022/09/24 09:54:07;;;;;;;28.98;19.77;;;14.00;99.90;;;;;;5023822;28;20049;-72
2022/09/24 09:56:46;;;;;;;25.42;19.77;;;14.00;99.90;;;;;;5040191;28;20053;-68
2022/09/24 09:59:11;;;;;;;29.15;20.67;;;13.80;99.90;;;;;;5039802;28;20102;-69
2022/09/24 10:01:44;;;;;;;30.45;20.75;;;13.70;99.90;;;;;;5039998;28;20021;-72
2022/09/24 10:04:31;;;;;;;29.10;21.40;;;13.70;99.90;;;;;;5040088;28;20041;-72
2022/09/24 10:07:16;;;;;;;28.13;21.38;;;13.80;99.90;;;;;;5057207;28;20037;-74
2022/09/24 10:09:44;;;;;;;30.50;21.75;;;13.90;99.90;;;;;;5040118;28;20094;-73
2022/09/24 10:12:13;;;;;;;29.65;20.90;;;13.90;99.90;;;;;;5040208;28;20052;-71
2022/09/24 10:14:39;;;;;;;27.08;20.50;;;14.10;99.90;;;;;;5056197;28;20037;-71
2022/09/24 10:17:05;;;;;;;26.08;20.77;;;14.20;99.90;;;;;;5057190;28;20358;-72
2022/09/24 10:19:37;;;;;;;30.00;21.75;;;14.20;99.90;;;;;;5023369;28;20045;-71
2022/09/24 10:22:25;;;;;;;27.70;21.55;;;14.30;99.90;;;;;;5040019;28;20316;-69
2022/09/24 10:24:54;;;;;;;29.60;21.63;;;14.40;99.90;;;;;;5056819;28;20029;-69
2022/09/24 10:27:26;;;;;;;30.17;22.27;;;14.30;99.90;;;;;;5039489;28;20029;-69
2022/09/24 10:32:40;;;;;;;30.08;20.92;;;14.10;99.90;;;;;;5057321;28;20263;-64
2022/09/24 10:35:38;;;;;;;27.63;20.92;;;14.00;99.90;;;;;;5039446;28;20029;-64
2022/09/24 10:38:16;;;;;;;30.42;21.17;;;14.00;99.90;;;;;;5007041;28;20049;-69
2022/09/24 10:40:42;;;;;;;28.17;20.63;;;14.10;99.90;;;;;;5056822;28;20032;-69
2022/09/24 10:43:20;;;;;;;27.63;20.80;;;14.10;99.90;;;;;;5056856;28;20389;-68
2022/09/24 10:46:03;;;;;;;26.70;20.90;;;14.10;99.90;;;;;;5056739;28;20017;-68
2022/09/24 10:48:41;;;;;;;28.65;21.67;;;14.40;99.90;;;;;;5039418;28;20064;-64
2022/09/24 10:51:25;;;;;;;31.85;23.13;;;14.10;99.90;;;;;;5039379;28;20051;-68
2022/09/24 10:54:02;;;;;;;30.48;22.98;;;14.00;99.90;;;;;;5059466;28;20112;-64
2022/09/24 10:56:32;;;;;;;28.92;22.05;;;14.00;99.90;;;;;;5061338;28;20021;-67
2022/09/24 10:59:20;;;;;;;33.17;23.33;;;14.00;99.90;;;;;;5060605;28;20032;-66
2022/09/24 11:01:58;;;;;;;30.13;23.15;;;14.00;99.90;;;;;;5043411;28;20041;-67
2022/09/24 11:04:49;;;;;;;31.45;23.25;;;14.10;99.90;;;;;;5043192;28;20029;-63
2022/09/24 11:07:35;;;;;;;32.08;24.17;;;14.10;99.90;;;;;;5043204;28;20040;-67
2022/09/24 11:10:17;;;;;;;30.75;23.50;;;14.20;99.90;;;;;;5043066;28;20032;-67
2022/09/24 11:13:02;;;;;;;32.83;23.98;;;14.20;99.90;;;;;;5026584;28;20055;-66
2022/09/24 11:15:28;;;;;;;32.20;24.00;;;14.10;99.90;;;;;;5060350;28;20029;-68
2022/09/24 11:18:16;;;;;;;32.17;23.90;;;14.20;99.90;;;;;;5042784;28;20103;-67
2022/09/24 11:21:22;;;;;;;29.55;23.10;;;14.30;99.90;;;;;;5060328;28;20044;-68
2022/09/24 11:24:06;;;;;;;30.85;23.35;;;14.50;99.90;;;;;;5034755;28;20032;-68
2022/09/24 11:26:54;;;;;;;36.05;25.52;;;14.60;99.90;;;;;;5042897;28;20040;-65
2022/09/24 11:29:27;;;;;;;32.55;23.90;;;14.70;99.90;;;;;;5042580;28;20028;-67
2022/09/24 11:32:05;;;;;;;30.70;24.60;;;14.60;99.90;;;;;;5060078;28;20072;-66
2022/09/24 11:34:49;;;;;;;31.30;22.83;;;14.60;99.90;;;;;;5059106;28;20039;-68
2022/09/24 11:37:40;;;;;;;27.92;22.58;;;14.80;99.90;;;;;;5026097;28;20033;-66
2022/09/24 11:40:42;;;;;;;29.13;22.58;;;14.80;99.90;;;;;;5059974;28;20400;-65
2022/09/24 11:43:20;;;;;;;28.63;23.07;;;15.00;99.90;;;;;;5059832;28;20096;-64
2022/09/24 11:45:54;;;;;;;34.17;24.55;;;15.00;99.90;;;;;;5042440;28;20028;-65
2022/09/24 11:48:34;;;;;;;31.00;23.95;;;15.20;99.90;;;;;;5059932;28;20029;-63
2022/09/24 11:51:00;;;;;;;27.17;22.17;;;15.40;99.90;;;;;;5059787;28;20488;-65
2022/09/24 11:53:37;;;;;;;28.95;23.08;;;15.40;99.90;;;;;;5059622;28;20060;-64
2022/09/24 11:56:16;;;;;;;27.70;21.98;;;15.70;99.90;;;;;;5042267;28;20396;-64
2022/09/24 11:58:57;;;;;;;35.55;25.80;;;15.80;99.90;;;;;;5042266;28;20037;-66
2022/09/24 12:01:28;;;;;;;35.53;26.17;;;16.10;99.90;;;;;;5058712;28;20397;-63
2022/09/24 12:04:12;;;;;;;30.70;24.05;;;16.40;99.90;;;;;;5058500;28;20119;-66
2022/09/24 12:07:16;;;;;;;33.10;24.27;;;16.50;99.90;;;;;;5059367;28;20051;-64
2022/09/24 12:09:51;;;;;;;29.23;23.48;;;16.40;99.90;;;;;;5042298;28;20355;-64
2022/09/24 12:12:22;;;;;;;28.70;23.50;;;16.60;99.90;;;;;;5059336;28;20064;-65
2022/09/24 12:14:51;;;;;;;25.60;21.95;;;16.50;99.90;;;;;;5059160;28;20025;-64
2022/09/24 12:17:25;;;;;;;31.10;23.83;;;16.50;99.90;;;;;;5058892;28;20094;-64
2022/09/24 12:19:58;;;;;;;27.00;22.23;;;16.70;99.90;;;;;;5041783;28;20115;-64
2022/09/24 12:22:26;;;;;;;24.55;21.17;;;16.70;99.90;;;;;;5059170;28;20045;-64
2022/09/24 12:24:57;;;;;;;28.95;22.52;;;16.70;99.90;;;;;;5041479;28;20401;-63
2022/09/24 12:27:37;;;;;;;27.13;22.00;;;16.80;99.90;;;;;;5059545;28;20033;-65
2022/09/24 12:33:12;;;;;;;23.50;18.92;;;16.80;99.90;;;;;;5058954;28;20076;-65
2022/09/24 12:36:18;;;;;;;22.63;17.98;;;17.00;99.90;;;;;;5058004;28;20401;-64
2022/09/24 12:38:53;;;;;;;15.80;14.15;;;16.90;99.90;;;;;;5047562;28;20503;-64
2022/09/24 12:41:23;;;;;;;14.82;13.30;;;17.20;99.90;;;;;;5058817;28;20127;-65
2022/09/24 12:44:11;;;;;;;17.00;13.48;;;17.40;99.90;;;;;;5041449;28;20313;-64
2022/09/24 12:46:56;;;;;;;15.10;13.57;;;17.70;99.90;;;;;;5058686;28;20029;-66
2022/09/24 12:49:25;;;;;;;15.20;13.60;;;17.90;99.90;;;;;;5058504;28;20025;-67
2022/09/24 12:51:56;;;;;;;13.38;12.02;;;18.00;99.90;;;;;;5057836;28;20025;-65
2022/09/24 12:54:33;;;;;;;12.35;11.10;;;18.00;99.90;;;;;;5041634;28;20386;-66
2022/09/24 12:57:16;;;;;;;11.05;9.95;;;18.10;99.90;;;;;;5059047;28;20099;-65
2022/09/24 12:59:46;;;;;;;8.93;8.02;;;18.30;99.90;;;;;;5058416;28;20020;-66
2022/09/24 13:02:45;;;;;;;8.88;7.97;;;18.40;99.90;;;;;;5058867;28;20057;-67
2022/09/24 13:05:44;;;;;;;8.98;8.25;;;18.50;99.90;;;;;;5041074;28;20036;-66